Zim Qingdao — A8IZ2 — position and weather

sailwx.info

Track history (hours):
 
Tides and Currents Weather Stations Pressure Air Temp Water Temp Dewpoint Dewpoint Depression Visibility Wind Speed Wind Dir Waves Ship Positions

Zim Qingdao

Last reported at 2014-Jul-25 22:33 UTC. Time now 2014-Jul-25 23:02 UTC.
Position N 40°28' E 001°05'.

Length 260.61 m; beam 32.25 m; draft 12.6 m.

Type: Cargo ship. MMSI: 636012904.

Date/timePositionNaut miles runAvg speedWind from/ knotsBaromVisibWave heightAir tempDewpointWater temp
2014-Jul-25 22:33N 40°28' E 001°05'1716.1
2014-Jul-25 21:29N 40°45' E 001°09'1515.7
2014-Jul-25 20:33N 40°60' E 001°12'6 5.5
2014-Jul-25 19:29N 41°06' E 001°13'0 0.0
2014-Jul-25 18:29N 41°06' E 001°13'0 0.0
2014-Jul-25 17:08N 41°06' E 001°13'0 0.0
2014-Jul-25 15:32N 41°06' E 001°13'0 0.0
2014-Jul-25 11:26N 41°06' E 001°13'0 0.0
2014-Jul-25 10:26N 41°06' E 001°13'0 0.0
2014-Jul-25 09:32N 41°06' E 001°13'0 0.0
2014-Jul-25 08:08N 41°06' E 001°13'0 0.0
2014-Jul-25 05:29N 41°06' E 001°13'5 5.1
2014-Jul-25 04:32N 41°03' E 001°18'1717.2
2014-Jul-25 03:33N 41°05' E 001°40'1717.4
2014-Jul-25 02:33N 41°10' E 002°03'1817.6
2014-Jul-25 01:33N 41°14' E 002°25'1818.0
2014-Jul-25 00:33N 41°23' E 002°46'1717.3
2014-Jul-24 23:33N 41°30' E 003°07'1717.2
2014-Jul-24 22:33N 41°38' E 003°27'1717.3
2014-Jul-24 21:33N 41°46' E 003°48'1818.0
2014-Jul-24 20:34N 41°54' E 004°09'1615.9
2014-Jul-24 19:33N 42°02' E 004°28'1817.7
2014-Jul-24 18:32N 42°10' E 004°50'1716.2
2014-Jul-24 17:30N 42°18' E 005°10'2117.4
2014-Jul-24 16:16N 42°28' E 005°36'1317.5
2014-Jul-24 15:33N 42°34' E 005°51'1817.0
2014-Jul-24 14:31N 42°42' E 006°12'1717.6
2014-Jul-24 13:33N 42°49' E 006°33'1817.9
2014-Jul-24 12:33N 42°59' E 006°53'1817.7
2014-Jul-24 11:33N 43°09' E 007°13'7017.3
2014-Jul-24 07:31N 43°55' E 008°26'1717.8
2014-Jul-24 06:34N 44°07' E 008°41'1717.2
2014-Jul-24 05:34N 44°20' E 008°57'5 4.3
2014-Jul-24 04:31N 44°24' E 008°54'0 0.0
2014-Jul-24 03:31N 44°24' E 008°54'0 0.0
2014-Jul-24 02:31N 44°24' E 008°54'0 0.0
2014-Jul-24 01:31N 44°24' E 008°54'0 0.0
2014-Jul-24 00:31N 44°24' E 008°54'0 0.0
2014-Jul-23 23:31N 44°24' E 008°54'0 0.0
2014-Jul-23 22:25N 44°24' E 008°54'0 0.0
2014-Jul-23 21:31N 44°24' E 008°54'0 0.0
2014-Jul-23 20:31N 44°24' E 008°54'0 0.0
2014-Jul-23 19:31N 44°24' E 008°54'0 0.0
2014-Jul-23 18:31N 44°24' E 008°54'0 0.0
2014-Jul-23 17:31N 44°24' E 008°54'0 0.0
2014-Jul-23 16:28N 44°24' E 008°54'0 0.0
2014-Jul-23 15:31N 44°24' E 008°54'0 0.0
2014-Jul-23 14:31N 44°24' E 008°54'0 0.0
2014-Jul-23 13:31N 44°24' E 008°54'0 0.0
2014-Jul-23 12:31N 44°24' E 008°54'0 0.0
2014-Jul-23 11:31N 44°24' E 008°54'0 0.0
2014-Jul-23 10:31N 44°24' E 008°54'0 0.0
2014-Jul-23 09:31N 44°24' E 008°54'0 0.0
2014-Jul-23 08:31N 44°24' E 008°54'0 0.2
2014-Jul-23 07:33N 44°24' E 008°54'6 6.1
2014-Jul-23 06:33N 44°19' E 008°59'1918.8
2014-Jul-23 05:33N 44°02' E 009°08'2120.6
2014-Jul-23 04:33N 43°42' E 009°17'2020.4
2014-Jul-23 03:33N 43°23' E 009°26'2020.3
2014-Jul-23 02:33N 43°04' E 009°35'2120.5
2014-Jul-23 01:33N 42°49' E 009°55'2320.4
2014-Jul-23 00:26N 42°33' E 010°17'1820.2
2014-Jul-22 23:33N 42°20' E 010°34'2120.6
2014-Jul-22 22:33N 42°06' E 010°53'66017.6
2014-Jul-21 09:10N 36°44' E 023°19'5419.1
2014-Jul-21 06:21N 37°34' E 023°42'1517.7
2014-Jul-21 05:31N 37°48' E 023°37'7 0.5
2014-Jul-20 15:29N 37°55' E 023°35'1 1.5
2014-Jul-20 14:32N 37°54' E 023°36'0 0.3
2014-Jul-20 13:33N 37°54' E 023°36'5 4.8
2014-Jul-20 12:33N 37°50' E 023°33'0 0.1
2014-Jul-20 11:33N 37°50' E 023°33'1 0.8
2014-Jul-20 10:33N 37°50' E 023°34'2 0.1
2014-Jul-19 13:32N 37°52' E 023°32'0 0.0
2014-Jul-19 12:32N 37°52' E 023°32'0 0.0
2014-Jul-19 11:32N 37°52' E 023°32'0 0.1
2014-Jul-19 10:32N 37°52' E 023°32'0 0.1
2014-Jul-19 09:32N 37°52' E 023°32'0 0.0
2014-Jul-19 08:32N 37°52' E 023°32'0 0.0
2014-Jul-19 07:32N 37°52' E 023°32'0 0.0
2014-Jul-19 06:32N 37°52' E 023°32'0 0.0
2014-Jul-19 05:32N 37°52' E 023°32'0 0.0
2014-Jul-19 04:33N 37°52' E 023°32'0 0.0
2014-Jul-19 03:34N 37°52' E 023°32'0 0.1
2014-Jul-19 02:33N 37°52' E 023°32'6 6.1
2014-Jul-19 01:33N 37°51' E 023°39'1110.8
2014-Jul-19 00:33N 37°41' E 023°45'1110.9
2014-Jul-18 23:33N 37°31' E 023°50'1110.9
2014-Jul-18 22:33N 37°20' E 023°55'1111.0
2014-Jul-18 21:33N 37°10' E 023°59'1111.1
2014-Jul-18 20:33N 36°59' E 024°04'1411.0
2014-Jul-18 19:18N 36°46' E 024°09'811.1
2014-Jul-18 18:33N 36°38' E 024°12'1110.6
2014-Jul-18 17:31N 36°32' E 024°23'1110.9
2014-Jul-18 16:29N 36°25' E 024°35'1011.1
2014-Jul-18 15:33N 36°20' E 024°46'1111.0
2014-Jul-18 14:33N 36°14' E 024°57'1110.9
2014-Jul-18 13:32N 36°08' E 025°09'1111.3
2014-Jul-18 12:33N 36°02' E 025°20'1313.2
2014-Jul-18 11:33N 35°55' E 025°34'1615.1
2014-Jul-18 10:30N 35°46' E 025°50'48813.6
2014-Jul-16 22:32N 32°49' E 035°01'  
Track history (hours):
 
Tides and Currents Weather Stations Pressure Air Temp Water Temp Dewpoint Dewpoint Depression Visibility Wind Speed Wind Dir Waves Ship Positions

Zim Qingdao

Last reported at 2014-Jul-25 22:33 UTC. Time now 2014-Jul-25 23:02 UTC.
Position N 40°28' E 001°05'.

Length 260.61 m; beam 32.25 m; draft 12.6 m.

Type: Cargo ship. MMSI: 636012904.

Date/timePositionNaut miles runAvg speedWind from/ knotsBaromVisibWave heightAir tempDewpointWater temp
2014-Jul-25 22:33N 40°28' E 001°05'1716.1
2014-Jul-25 21:29N 40°45' E 001°09'1515.7
2014-Jul-25 20:33N 40°60' E 001°12'6 5.5
2014-Jul-25 19:29N 41°06' E 001°13'0 0.0
2014-Jul-25 18:29N 41°06' E 001°13'0 0.0
2014-Jul-25 17:08N 41°06' E 001°13'0 0.0
2014-Jul-25 15:32N 41°06' E 001°13'0 0.0
2014-Jul-25 11:26N 41°06' E 001°13'0 0.0
2014-Jul-25 10:26N 41°06' E 001°13'0 0.0
2014-Jul-25 09:32N 41°06' E 001°13'0 0.0
2014-Jul-25 08:08N 41°06' E 001°13'0 0.0
2014-Jul-25 05:29N 41°06' E 001°13'5 5.1
2014-Jul-25 04:32N 41°03' E 001°18'1717.2
2014-Jul-25 03:33N 41°05' E 001°40'1717.4
2014-Jul-25 02:33N 41°10' E 002°03'1817.6
2014-Jul-25 01:33N 41°14' E 002°25'1818.0
2014-Jul-25 00:33N 41°23' E 002°46'1717.3
2014-Jul-24 23:33N 41°30' E 003°07'1717.2
2014-Jul-24 22:33N 41°38' E 003°27'1717.3
2014-Jul-24 21:33N 41°46' E 003°48'1818.0
2014-Jul-24 20:34N 41°54' E 004°09'1615.9
2014-Jul-24 19:33N 42°02' E 004°28'1817.7
2014-Jul-24 18:32N 42°10' E 004°50'1716.2
2014-Jul-24 17:30N 42°18' E 005°10'2117.4
2014-Jul-24 16:16N 42°28' E 005°36'1317.5
2014-Jul-24 15:33N 42°34' E 005°51'1817.0
2014-Jul-24 14:31N 42°42' E 006°12'1717.6
2014-Jul-24 13:33N 42°49' E 006°33'1817.9
2014-Jul-24 12:33N 42°59' E 006°53'1817.7
2014-Jul-24 11:33N 43°09' E 007°13'7017.3
2014-Jul-24 07:31N 43°55' E 008°26'1717.8
2014-Jul-24 06:34N 44°07' E 008°41'1717.2
2014-Jul-24 05:34N 44°20' E 008°57'5 4.3
2014-Jul-24 04:31N 44°24' E 008°54'0 0.0
2014-Jul-24 03:31N 44°24' E 008°54'0 0.0
2014-Jul-24 02:31N 44°24' E 008°54'0 0.0
2014-Jul-24 01:31N 44°24' E 008°54'0 0.0
2014-Jul-24 00:31N 44°24' E 008°54'0 0.0
2014-Jul-23 23:31N 44°24' E 008°54'0 0.0
2014-Jul-23 22:25N 44°24' E 008°54'0 0.0
2014-Jul-23 21:31N 44°24' E 008°54'0 0.0
2014-Jul-23 20:31N 44°24' E 008°54'0 0.0
2014-Jul-23 19:31N 44°24' E 008°54'0 0.0
2014-Jul-23 18:31N 44°24' E 008°54'0 0.0
2014-Jul-23 17:31N 44°24' E 008°54'0 0.0
2014-Jul-23 16:28N 44°24' E 008°54'0 0.0
2014-Jul-23 15:31N 44°24' E 008°54'0 0.0
2014-Jul-23 14:31N 44°24' E 008°54'0 0.0
2014-Jul-23 13:31N 44°24' E 008°54'0 0.0
2014-Jul-23 12:31N 44°24' E 008°54'0 0.0
2014-Jul-23 11:31N 44°24' E 008°54'0 0.0
2014-Jul-23 10:31N 44°24' E 008°54'0 0.0
2014-Jul-23 09:31N 44°24' E 008°54'0 0.0
2014-Jul-23 08:31N 44°24' E 008°54'0 0.2
2014-Jul-23 07:33N 44°24' E 008°54'6 6.1
2014-Jul-23 06:33N 44°19' E 008°59'1918.8
2014-Jul-23 05:33N 44°02' E 009°08'2120.6
2014-Jul-23 04:33N 43°42' E 009°17'2020.4
2014-Jul-23 03:33N 43°23' E 009°26'2020.3
2014-Jul-23 02:33N 43°04' E 009°35'2120.5
2014-Jul-23 01:33N 42°49' E 009°55'2320.4
2014-Jul-23 00:26N 42°33' E 010°17'1820.2
2014-Jul-22 23:33N 42°20' E 010°34'2120.6
2014-Jul-22 22:33N 42°06' E 010°53'66017.6
2014-Jul-21 09:10N 36°44' E 023°19'5419.1
2014-Jul-21 06:21N 37°34' E 023°42'1517.7
2014-Jul-21 05:31N 37°48' E 023°37'7 0.5
2014-Jul-20 15:29N 37°55' E 023°35'1 1.5
2014-Jul-20 14:32N 37°54' E 023°36'0 0.3
2014-Jul-20 13:33N 37°54' E 023°36'5 4.8
2014-Jul-20 12:33N 37°50' E 023°33'0 0.1
2014-Jul-20 11:33N 37°50' E 023°33'1 0.8
2014-Jul-20 10:33N 37°50' E 023°34'2 0.1
2014-Jul-19 13:32N 37°52' E 023°32'0 0.0
2014-Jul-19 12:32N 37°52' E 023°32'0 0.0
2014-Jul-19 11:32N 37°52' E 023°32'0 0.1
2014-Jul-19 10:32N 37°52' E 023°32'0 0.1
2014-Jul-19 09:32N 37°52' E 023°32'0 0.0
2014-Jul-19 08:32N 37°52' E 023°32'0 0.0
2014-Jul-19 07:32N 37°52' E 023°32'0 0.0
2014-Jul-19 06:32N 37°52' E 023°32'0 0.0
2014-Jul-19 05:32N 37°52' E 023°32'0 0.0
2014-Jul-19 04:33N 37°52' E 023°32'0 0.0
2014-Jul-19 03:34N 37°52' E 023°32'0 0.1
2014-Jul-19 02:33N 37°52' E 023°32'6 6.1
2014-Jul-19 01:33N 37°51' E 023°39'1110.8
2014-Jul-19 00:33N 37°41' E 023°45'1110.9
2014-Jul-18 23:33N 37°31' E 023°50'1110.9
2014-Jul-18 22:33N 37°20' E 023°55'1111.0
2014-Jul-18 21:33N 37°10' E 023°59'1111.1
2014-Jul-18 20:33N 36°59' E 024°04'1411.0
2014-Jul-18 19:18N 36°46' E 024°09'811.1
2014-Jul-18 18:33N 36°38' E 024°12'1110.6
2014-Jul-18 17:31N 36°32' E 024°23'1110.9
2014-Jul-18 16:29N 36°25' E 024°35'1011.1
2014-Jul-18 15:33N 36°20' E 024°46'1111.0
2014-Jul-18 14:33N 36°14' E 024°57'1110.9
2014-Jul-18 13:32N 36°08' E 025°09'1111.3
2014-Jul-18 12:33N 36°02' E 025°20'1313.2
2014-Jul-18 11:33N 35°55' E 025°34'1615.1
2014-Jul-18 10:30N 35°46' E 025°50'48813.6
2014-Jul-16 22:32N 32°49' E 035°01'  

Dump ship's entire track history